Hayes, United Kingdom
Current Conditions -  °F | °C
As of 11:50 AM on Monday 22 Dec 2014 (Local Time) from EGLL Reporting Station
Broken Clouds Broken Clouds  
Wind Chill: 55°   Ceiling: 2500
Heat Index: 55°   Visibility: 6mi
Dew Point: 48°   Wind: 21mph
Humidity: 77%   Direction: 240°WSW
Pressure: 30.06"   Gusts: NA
Location:  51.51°N, 0.43°W
Report Text: EGLL 221150Z 24018KT 9999 BKN025 13/09 Q1018 NOSIG
Loading
Personal Weather Stations






























Interactive Weather Map New forecast layout! Learn more

10-Day Weather Forecast

Advertisements
Track Severe Weather on mobile